S/y Twilight — 2GGS4 — position and weather

sailwx.info

Track history (hours):
 
Tides and Currents Weather Stations Pressure Air Temp Water Temp Dewpoint Dewpoint Depression Visibility Wind Speed Wind Dir Waves Ship Positions

S/y Twilight

Last reported at 2018-Feb-22 06:53 UTC. Time now 2018-Feb-26 03:11 UTC.
Position N 17°33' W 062°29'.

Length 37 m.

Type: Sailing vessel. MMSI: 235097249.

Date/timePositionNaut miles runAvg speedWind from/ knotsBaromVisibWave heightAir tempDewpointWater temp
2018-Feb-22 06:53N 17°33' W 062°29'4 9.8
2018-Feb-22 06:30N 17°31' W 062°26'5 9.9
2018-Feb-22 06:00N 17°27' W 062°22'5 9.9
2018-Feb-22 05:30N 17°24' W 062°18'510.1
2018-Feb-22 05:00N 17°21' W 062°14'510.1
2018-Feb-22 04:28N 17°17' W 062°10'5 9.8
2018-Feb-22 04:00N 17°14' W 062°06'5 9.9
2018-Feb-22 03:30N 17°11' W 062°02'510.1
2018-Feb-22 03:00N 17°08' W 061°58'5 9.6
2018-Feb-22 02:30N 17°04' W 061°55'2 0.5
2018-Feb-21 23:26N 17°03' W 061°54'0 0.0
2018-Feb-21 22:56N 17°03' W 061°54'0 0.0
2018-Feb-21 20:05N 17°03' W 061°54'0 0.0
2018-Feb-21 17:59N 17°03' W 061°54'0 0.0
2018-Feb-21 16:29N 17°03' W 061°54'0 0.0
2018-Feb-21 14:50N 17°03' W 061°54'0 0.0
2018-Feb-21 13:32N 17°03' W 061°54'0 0.0
2018-Feb-21 13:14N 17°03' W 061°54'0 0.0
2018-Feb-21 12:56N 17°03' W 061°54'0 0.0
2018-Feb-21 11:11N 17°03' W 061°54'0 0.0
2018-Feb-21 10:53N 17°03' W 061°54'0 0.0
2018-Feb-21 09:14N 17°03' W 061°54'0 0.0
2018-Feb-21 08:56N 17°03' W 061°54'0 0.0
2018-Feb-21 08:26N 17°03' W 061°54'0 0.0
2018-Feb-21 07:56N 17°03' W 061°54'0 0.0
2018-Feb-21 07:17N 17°03' W 061°54'0 0.0
2018-Feb-21 02:05N 17°03' W 061°54'0 0.0
2018-Feb-21 01:56N 17°03' W 061°54'0 0.0
2018-Feb-21 00:02N 17°03' W 061°54'0 0.0
2018-Feb-20 23:50N 17°03' W 061°54'0 0.0
2018-Feb-20 21:20N 17°03' W 061°54'2 0.3
2018-Feb-20 14:55N 17°01' W 061°54'3 7.7
2018-Feb-20 14:30N 16°58' W 061°53'5 9.4
2018-Feb-20 14:00N 16°53' W 061°53'4 7.4
2018-Feb-20 13:30N 16°50' W 061°53'4 9.0
2018-Feb-20 13:00N 16°45' W 061°52'5 9.7
2018-Feb-20 12:30N 16°41' W 061°51'610.2
2018-Feb-20 11:53N 16°34' W 061°51'510.4
2018-Feb-20 11:26N 16°30' W 061°51'511.4
2018-Feb-20 11:00N 16°25' W 061°50'5 9.3
2018-Feb-20 10:29N 16°20' W 061°49'2 0.1
2018-Feb-18 23:36N 16°18' W 061°49'2 9.5
2018-Feb-18 23:25N 16°16' W 061°49'12 5.3
2018-Feb-18 21:11N 16°05' W 061°47'  
2018-Feb-14 19:43N 16°16' W 061°50'211.0
2018-Feb-14 19:30N 16°18' W 061°50'611.3
2018-Feb-14 19:00N 16°24' W 061°50'510.6
2018-Feb-14 18:29N 16°29' W 061°49'510.6
2018-Feb-14 18:00N 16°34' W 061°49'510.8
2018-Feb-14 17:30N 16°40' W 061°49'611.4
2018-Feb-14 17:00N 16°45' W 061°49'611.2
2018-Feb-14 16:30N 16°51' W 061°49'511.0
2018-Feb-14 16:00N 16°56' W 061°48'4 8.7
2018-Feb-14 15:30N 17°01' W 061°47'0 0.9
2018-Feb-14 14:58N 17°01' W 061°46'0 0.0
2018-Feb-14 14:28N 17°01' W 061°46'0 0.0
2018-Feb-14 13:58N 17°01' W 061°46'0 0.0
2018-Feb-14 13:28N 17°01' W 061°46'0 0.0
2018-Feb-14 12:58N 17°01' W 061°46'0 0.0
2018-Feb-14 12:28N 17°01' W 061°46'0 0.0
2018-Feb-14 11:58N 17°01' W 061°46'0 0.0
2018-Feb-14 11:28N 17°01' W 061°46'0 0.0
2018-Feb-14 10:58N 17°01' W 061°46'0 0.0
2018-Feb-14 10:25N 17°01' W 061°46'0 0.0
2018-Feb-14 09:58N 17°01' W 061°46'0 0.0
2018-Feb-14 09:28N 17°01' W 061°46'0 0.0
2018-Feb-14 08:58N 17°01' W 061°46'0 0.0
2018-Feb-14 08:28N 17°01' W 061°46'0 0.0
2018-Feb-14 07:55N 17°01' W 061°46'0 0.0
2018-Feb-14 07:28N 17°01' W 061°46'0 0.0
2018-Feb-14 06:58N 17°01' W 061°46'0 0.0
2018-Feb-14 06:28N 17°01' W 061°46'0 0.0
2018-Feb-14 05:58N 17°01' W 061°46'0 0.0
2018-Feb-14 05:28N 17°01' W 061°46'0 0.0
2018-Feb-14 04:58N 17°01' W 061°46'0 0.0
2018-Feb-14 04:28N 17°01' W 061°46'0 0.0
2018-Feb-14 03:58N 17°01' W 061°46'0 0.0
2018-Feb-14 03:28N 17°01' W 061°46'0 0.0
2018-Feb-14 02:58N 17°01' W 061°46'0 0.0
2018-Feb-14 02:28N 17°01' W 061°46'0 0.0
2018-Feb-14 01:58N 17°01' W 061°46'0 0.0
2018-Feb-14 01:28N 17°01' W 061°46'0 0.0
2018-Feb-14 00:58N 17°01' W 061°46'0 0.0
2018-Feb-14 00:28N 17°01' W 061°46'0 0.0
2018-Feb-13 23:58N 17°01' W 061°46'0 0.0
2018-Feb-13 23:28N 17°01' W 061°46'0 0.0
2018-Feb-13 22:58N 17°01' W 061°46'0 0.0
2018-Feb-13 22:28N 17°01' W 061°46'0 0.0
2018-Feb-13 21:58N 17°01' W 061°46'0 0.0
2018-Feb-13 21:28N 17°01' W 061°46'0 0.0
2018-Feb-13 20:58N 17°01' W 061°46'0 0.0
2018-Feb-13 20:28N 17°01' W 061°46'0 0.0
2018-Feb-13 19:58N 17°01' W 061°46'0 0.0
2018-Feb-13 19:28N 17°01' W 061°46'0 0.0
2018-Feb-13 18:58N 17°01' W 061°46'0 0.0
2018-Feb-13 18:28N 17°01' W 061°46'0 0.0
2018-Feb-13 17:58N 17°01' W 061°46'0 0.0
2018-Feb-13 17:28N 17°01' W 061°46'0 0.0
2018-Feb-13 16:58N 17°01' W 061°46'0 0.0
2018-Feb-13 16:28N 17°01' W 061°46'0 0.0
2018-Feb-13 15:59N 17°01' W 061°46'0 0.0
2018-Feb-13 15:28N 17°01' W 061°46'0 0.0
2018-Feb-13 14:58N 17°01' W 061°46'0 0.0
2018-Feb-13 14:28N 17°01' W 061°46'0 0.0
2018-Feb-13 13:58N 17°01' W 061°46'0 0.0
2018-Feb-13 13:28N 17°01' W 061°46'0 0.0
2018-Feb-13 12:58N 17°01' W 061°46'0 0.0
2018-Feb-13 12:28N 17°01' W 061°46'0 0.0
2018-Feb-13 11:58N 17°01' W 061°46'0 0.0
2018-Feb-13 11:28N 17°01' W 061°46'0 0.0
2018-Feb-13 10:58N 17°01' W 061°46'0 0.0
2018-Feb-13 10:28N 17°01' W 061°46'0 0.0
2018-Feb-13 09:58N 17°01' W 061°46'0 0.0
2018-Feb-13 09:28N 17°01' W 061°46'0 0.0
2018-Feb-13 08:58N 17°01' W 061°46'0 0.0
2018-Feb-13 08:28N 17°01' W 061°46'0 0.0
2018-Feb-13 07:58N 17°01' W 061°46'0 0.0
2018-Feb-13 07:28N 17°01' W 061°46'0 0.0
2018-Feb-13 06:58N 17°01' W 061°46'0 0.0
2018-Feb-13 06:28N 17°01' W 061°46'0 0.0
2018-Feb-13 05:58N 17°01' W 061°46'0 0.0
2018-Feb-13 05:28N 17°01' W 061°46'0 0.0
2018-Feb-13 04:58N 17°01' W 061°46'0 0.0
2018-Feb-13 04:28N 17°01' W 061°46'0 0.0
2018-Feb-13 03:58N 17°01' W 061°46'0 0.0
2018-Feb-13 03:28N 17°01' W 061°46'0 0.0
2018-Feb-13 02:58N 17°01' W 061°46'0 0.0
2018-Feb-13 02:28N 17°01' W 061°46'0 0.0
2018-Feb-13 01:58N 17°01' W 061°46'0 0.0
2018-Feb-13 01:28N 17°01' W 061°46'0 0.0
2018-Feb-13 00:58N 17°01' W 061°46'0 0.0
2018-Feb-13 00:28N 17°01' W 061°46'0 0.0
2018-Feb-12 23:58N 17°01' W 061°46'0 0.0
2018-Feb-12 23:28N 17°01' W 061°46'0 0.0
2018-Feb-12 22:58N 17°01' W 061°46'0 0.0
2018-Feb-12 22:28N 17°01' W 061°46'0 0.0
2018-Feb-12 21:58N 17°01' W 061°46'0 0.0
2018-Feb-12 21:28N 17°01' W 061°46'0 0.0
2018-Feb-12 20:58N 17°01' W 061°46'0 0.0
2018-Feb-12 20:28N 17°01' W 061°46'0 0.0
2018-Feb-12 19:58N 17°01' W 061°46'0 0.0
2018-Feb-12 19:25N 17°01' W 061°46'0 0.0
2018-Feb-12 18:58N 17°01' W 061°46'0 0.0
2018-Feb-12 18:28N 17°01' W 061°46'0 0.0
2018-Feb-12 17:58N 17°01' W 061°46'0 0.0
2018-Feb-12 17:28N 17°01' W 061°46'0 0.0
2018-Feb-12 16:58N 17°01' W 061°46'0 0.0
2018-Feb-12 16:28N 17°01' W 061°46'0 0.0
2018-Feb-12 15:58N 17°01' W 061°46'0 0.0
2018-Feb-12 15:16N 17°01' W 061°46'0 0.0
2018-Feb-12 14:58N 17°01' W 061°46'0 0.0
2018-Feb-12 14:28N 17°01' W 061°46'0 0.0
2018-Feb-12 13:58N 17°01' W 061°46'0 0.0
2018-Feb-12 13:28N 17°01' W 061°46'0 0.0
2018-Feb-12 12:58N 17°01' W 061°46'0 0.0
2018-Feb-12 12:28N 17°01' W 061°46'0 0.0
2018-Feb-12 11:58N 17°01' W 061°46'0 0.0
2018-Feb-12 11:28N 17°01' W 061°46'0 0.0
2018-Feb-12 10:58N 17°01' W 061°46'0 0.0
2018-Feb-12 10:28N 17°01' W 061°46'0 0.0
2018-Feb-12 09:58N 17°01' W 061°46'0 0.0
2018-Feb-12 09:28N 17°01' W 061°46'0 0.0
2018-Feb-12 08:58N 17°01' W 061°46'0 0.0
2018-Feb-12 08:28N 17°01' W 061°46'0 0.0
2018-Feb-12 07:58N 17°01' W 061°46'0 0.0
2018-Feb-12 07:28N 17°01' W 061°46'0 0.0
2018-Feb-12 06:58N 17°01' W 061°46'  
Track history (hours):
 
Tides and Currents Weather Stations Pressure Air Temp Water Temp Dewpoint Dewpoint Depression Visibility Wind Speed Wind Dir Waves Ship Positions

S/y Twilight

Last reported at 2018-Feb-22 06:53 UTC. Time now 2018-Feb-26 03:11 UTC.
Position N 17°33' W 062°29'.

Length 37 m.

Type: Sailing vessel. MMSI: 235097249.

Date/timePositionNaut miles runAvg speedWind from/ knotsBaromVisibWave heightAir tempDewpointWater temp
2018-Feb-22 06:53N 17°33' W 062°29'4 9.8
2018-Feb-22 06:30N 17°31' W 062°26'5 9.9
2018-Feb-22 06:00N 17°27' W 062°22'5 9.9
2018-Feb-22 05:30N 17°24' W 062°18'510.1
2018-Feb-22 05:00N 17°21' W 062°14'510.1
2018-Feb-22 04:28N 17°17' W 062°10'5 9.8
2018-Feb-22 04:00N 17°14' W 062°06'5 9.9
2018-Feb-22 03:30N 17°11' W 062°02'510.1
2018-Feb-22 03:00N 17°08' W 061°58'5 9.6
2018-Feb-22 02:30N 17°04' W 061°55'2 0.5
2018-Feb-21 23:26N 17°03' W 061°54'0 0.0
2018-Feb-21 22:56N 17°03' W 061°54'0 0.0
2018-Feb-21 20:05N 17°03' W 061°54'0 0.0
2018-Feb-21 17:59N 17°03' W 061°54'0 0.0
2018-Feb-21 16:29N 17°03' W 061°54'0 0.0
2018-Feb-21 14:50N 17°03' W 061°54'0 0.0
2018-Feb-21 13:32N 17°03' W 061°54'0 0.0
2018-Feb-21 13:14N 17°03' W 061°54'0 0.0
2018-Feb-21 12:56N 17°03' W 061°54'0 0.0
2018-Feb-21 11:11N 17°03' W 061°54'0 0.0
2018-Feb-21 10:53N 17°03' W 061°54'0 0.0
2018-Feb-21 09:14N 17°03' W 061°54'0 0.0
2018-Feb-21 08:56N 17°03' W 061°54'0 0.0
2018-Feb-21 08:26N 17°03' W 061°54'0 0.0
2018-Feb-21 07:56N 17°03' W 061°54'0 0.0
2018-Feb-21 07:17N 17°03' W 061°54'0 0.0
2018-Feb-21 02:05N 17°03' W 061°54'0 0.0
2018-Feb-21 01:56N 17°03' W 061°54'0 0.0
2018-Feb-21 00:02N 17°03' W 061°54'0 0.0
2018-Feb-20 23:50N 17°03' W 061°54'0 0.0
2018-Feb-20 21:20N 17°03' W 061°54'2 0.3
2018-Feb-20 14:55N 17°01' W 061°54'3 7.7
2018-Feb-20 14:30N 16°58' W 061°53'5 9.4
2018-Feb-20 14:00N 16°53' W 061°53'4 7.4
2018-Feb-20 13:30N 16°50' W 061°53'4 9.0
2018-Feb-20 13:00N 16°45' W 061°52'5 9.7
2018-Feb-20 12:30N 16°41' W 061°51'610.2
2018-Feb-20 11:53N 16°34' W 061°51'510.4
2018-Feb-20 11:26N 16°30' W 061°51'511.4
2018-Feb-20 11:00N 16°25' W 061°50'5 9.3
2018-Feb-20 10:29N 16°20' W 061°49'2 0.1
2018-Feb-18 23:36N 16°18' W 061°49'2 9.5
2018-Feb-18 23:25N 16°16' W 061°49'12 5.3
2018-Feb-18 21:11N 16°05' W 061°47'  
2018-Feb-14 19:43N 16°16' W 061°50'211.0
2018-Feb-14 19:30N 16°18' W 061°50'611.3
2018-Feb-14 19:00N 16°24' W 061°50'510.6
2018-Feb-14 18:29N 16°29' W 061°49'510.6
2018-Feb-14 18:00N 16°34' W 061°49'510.8
2018-Feb-14 17:30N 16°40' W 061°49'611.4
2018-Feb-14 17:00N 16°45' W 061°49'611.2
2018-Feb-14 16:30N 16°51' W 061°49'511.0
2018-Feb-14 16:00N 16°56' W 061°48'4 8.7
2018-Feb-14 15:30N 17°01' W 061°47'0 0.9
2018-Feb-14 14:58N 17°01' W 061°46'0 0.0
2018-Feb-14 14:28N 17°01' W 061°46'0 0.0
2018-Feb-14 13:58N 17°01' W 061°46'0 0.0
2018-Feb-14 13:28N 17°01' W 061°46'0 0.0
2018-Feb-14 12:58N 17°01' W 061°46'0 0.0
2018-Feb-14 12:28N 17°01' W 061°46'0 0.0
2018-Feb-14 11:58N 17°01' W 061°46'0 0.0
2018-Feb-14 11:28N 17°01' W 061°46'0 0.0
2018-Feb-14 10:58N 17°01' W 061°46'0 0.0
2018-Feb-14 10:25N 17°01' W 061°46'0 0.0
2018-Feb-14 09:58N 17°01' W 061°46'0 0.0
2018-Feb-14 09:28N 17°01' W 061°46'0 0.0
2018-Feb-14 08:58N 17°01' W 061°46'0 0.0
2018-Feb-14 08:28N 17°01' W 061°46'0 0.0
2018-Feb-14 07:55N 17°01' W 061°46'0 0.0
2018-Feb-14 07:28N 17°01' W 061°46'0 0.0
2018-Feb-14 06:58N 17°01' W 061°46'0 0.0
2018-Feb-14 06:28N 17°01' W 061°46'0 0.0
2018-Feb-14 05:58N 17°01' W 061°46'0 0.0
2018-Feb-14 05:28N 17°01' W 061°46'0 0.0
2018-Feb-14 04:58N 17°01' W 061°46'0 0.0
2018-Feb-14 04:28N 17°01' W 061°46'0 0.0
2018-Feb-14 03:58N 17°01' W 061°46'0 0.0
2018-Feb-14 03:28N 17°01' W 061°46'0 0.0
2018-Feb-14 02:58N 17°01' W 061°46'0 0.0
2018-Feb-14 02:28N 17°01' W 061°46'0 0.0
2018-Feb-14 01:58N 17°01' W 061°46'0 0.0
2018-Feb-14 01:28N 17°01' W 061°46'0 0.0
2018-Feb-14 00:58N 17°01' W 061°46'0 0.0
2018-Feb-14 00:28N 17°01' W 061°46'0 0.0
2018-Feb-13 23:58N 17°01' W 061°46'0 0.0
2018-Feb-13 23:28N 17°01' W 061°46'0 0.0
2018-Feb-13 22:58N 17°01' W 061°46'0 0.0
2018-Feb-13 22:28N 17°01' W 061°46'0 0.0
2018-Feb-13 21:58N 17°01' W 061°46'0 0.0
2018-Feb-13 21:28N 17°01' W 061°46'0 0.0
2018-Feb-13 20:58N 17°01' W 061°46'0 0.0
2018-Feb-13 20:28N 17°01' W 061°46'0 0.0
2018-Feb-13 19:58N 17°01' W 061°46'0 0.0
2018-Feb-13 19:28N 17°01' W 061°46'0 0.0
2018-Feb-13 18:58N 17°01' W 061°46'0 0.0
2018-Feb-13 18:28N 17°01' W 061°46'0 0.0
2018-Feb-13 17:58N 17°01' W 061°46'0 0.0
2018-Feb-13 17:28N 17°01' W 061°46'0 0.0
2018-Feb-13 16:58N 17°01' W 061°46'0 0.0
2018-Feb-13 16:28N 17°01' W 061°46'0 0.0
2018-Feb-13 15:59N 17°01' W 061°46'0 0.0
2018-Feb-13 15:28N 17°01' W 061°46'0 0.0
2018-Feb-13 14:58N 17°01' W 061°46'0 0.0
2018-Feb-13 14:28N 17°01' W 061°46'0 0.0
2018-Feb-13 13:58N 17°01' W 061°46'0 0.0
2018-Feb-13 13:28N 17°01' W 061°46'0 0.0
2018-Feb-13 12:58N 17°01' W 061°46'0 0.0
2018-Feb-13 12:28N 17°01' W 061°46'0 0.0
2018-Feb-13 11:58N 17°01' W 061°46'0 0.0
2018-Feb-13 11:28N 17°01' W 061°46'0 0.0
2018-Feb-13 10:58N 17°01' W 061°46'0 0.0
2018-Feb-13 10:28N 17°01' W 061°46'0 0.0
2018-Feb-13 09:58N 17°01' W 061°46'0 0.0
2018-Feb-13 09:28N 17°01' W 061°46'0 0.0
2018-Feb-13 08:58N 17°01' W 061°46'0 0.0
2018-Feb-13 08:28N 17°01' W 061°46'0 0.0
2018-Feb-13 07:58N 17°01' W 061°46'0 0.0
2018-Feb-13 07:28N 17°01' W 061°46'0 0.0
2018-Feb-13 06:58N 17°01' W 061°46'0 0.0
2018-Feb-13 06:28N 17°01' W 061°46'0 0.0
2018-Feb-13 05:58N 17°01' W 061°46'0 0.0
2018-Feb-13 05:28N 17°01' W 061°46'0 0.0
2018-Feb-13 04:58N 17°01' W 061°46'0 0.0
2018-Feb-13 04:28N 17°01' W 061°46'0 0.0
2018-Feb-13 03:58N 17°01' W 061°46'0 0.0
2018-Feb-13 03:28N 17°01' W 061°46'0 0.0
2018-Feb-13 02:58N 17°01' W 061°46'0 0.0
2018-Feb-13 02:28N 17°01' W 061°46'0 0.0
2018-Feb-13 01:58N 17°01' W 061°46'0 0.0
2018-Feb-13 01:28N 17°01' W 061°46'0 0.0
2018-Feb-13 00:58N 17°01' W 061°46'0 0.0
2018-Feb-13 00:28N 17°01' W 061°46'0 0.0
2018-Feb-12 23:58N 17°01' W 061°46'0 0.0
2018-Feb-12 23:28N 17°01' W 061°46'0 0.0
2018-Feb-12 22:58N 17°01' W 061°46'0 0.0
2018-Feb-12 22:28N 17°01' W 061°46'0 0.0
2018-Feb-12 21:58N 17°01' W 061°46'0 0.0
2018-Feb-12 21:28N 17°01' W 061°46'0 0.0
2018-Feb-12 20:58N 17°01' W 061°46'0 0.0
2018-Feb-12 20:28N 17°01' W 061°46'0 0.0
2018-Feb-12 19:58N 17°01' W 061°46'0 0.0
2018-Feb-12 19:25N 17°01' W 061°46'0 0.0
2018-Feb-12 18:58N 17°01' W 061°46'0 0.0
2018-Feb-12 18:28N 17°01' W 061°46'0 0.0
2018-Feb-12 17:58N 17°01' W 061°46'0 0.0
2018-Feb-12 17:28N 17°01' W 061°46'0 0.0
2018-Feb-12 16:58N 17°01' W 061°46'0 0.0
2018-Feb-12 16:28N 17°01' W 061°46'0 0.0
2018-Feb-12 15:58N 17°01' W 061°46'0 0.0
2018-Feb-12 15:16N 17°01' W 061°46'0 0.0
2018-Feb-12 14:58N 17°01' W 061°46'0 0.0
2018-Feb-12 14:28N 17°01' W 061°46'0 0.0
2018-Feb-12 13:58N 17°01' W 061°46'0 0.0
2018-Feb-12 13:28N 17°01' W 061°46'0 0.0
2018-Feb-12 12:58N 17°01' W 061°46'0 0.0
2018-Feb-12 12:28N 17°01' W 061°46'0 0.0
2018-Feb-12 11:58N 17°01' W 061°46'0 0.0
2018-Feb-12 11:28N 17°01' W 061°46'0 0.0
2018-Feb-12 10:58N 17°01' W 061°46'0 0.0
2018-Feb-12 10:28N 17°01' W 061°46'0 0.0
2018-Feb-12 09:58N 17°01' W 061°46'0 0.0
2018-Feb-12 09:28N 17°01' W 061°46'0 0.0
2018-Feb-12 08:58N 17°01' W 061°46'0 0.0
2018-Feb-12 08:28N 17°01' W 061°46'0 0.0
2018-Feb-12 07:58N 17°01' W 061°46'0 0.0
2018-Feb-12 07:28N 17°01' W 061°46'0 0.0
2018-Feb-12 06:58N 17°01' W 061°46'  

Dump ship's entire track history